Aérodrome :
LOGIN :

S'inscrire | Disclaimer

   EN    FR    IT 

 










Légende :    VFR   VFR Marginal   IFR   IFR Intensif   IFR Très Intensif
Visi : 
Plafond : 
>= 8 km
>= 3000ft
5 à 8 km
1000 à 3000 ft
1500m à 5 km
500 à 1000 ft
800 à 1500m
200 à 500 ft
< 800m
< 200 ft
Symboles :   Orages  Brouillard  Fortes neiges  Fortes précipitations  Vent > 20 kt
SIGMETs :   Divers  Orages  Givrage  Turbulence  Onde Orograph.  Cendres Volcan.







- Altitude de l'aérodrome : 203 ft
- Code IATA : XMJ
- Voir les cartes d'approche


LFBM - Mont-De-Marsan

DERNIER METAR :
  • 210130Z AUTO 08004KT 7000 NSC 01/01 Q1007 TEMPO 0800 BCFG

METARs EXPIRÉS :
  • 210100Z AUTO 10002KT 6000 NSC 00/M00 Q1007 TEMPO 0800 BCFG
  • 210030Z AUTO VRB02KT 9000 NSC M00/M01 Q1007 TEMPO 0800 BCFG
  • 210000Z AUTO 07003KT 8000 NSC 00/M00 Q1007 TEMPO 4000 BR
  • 202330Z AUTO 06002KT 9000 NSC 00/M00 Q1007 TEMPO 4000 BR
  • 202300Z AUTO 06003KT CAVOK 01/01 Q1007 TEMPO 4000 BR

TAF TAF LFBM
Valide du 20 à 21h jusqu'au 21 à 21h UTC


202000Z 2021/2121 07003KT CAVOK
TEMPO 2021/2102 4000 BR
PROB30
TEMPO 2102/2108 0800 BCFG
Pas de NOTAMs connus pour ce terrain.



MET'MAP, la Météo Aéronautique d'un coup d'oeil ! - Copyright ORBIFLY Décembre 2007 - Disclaimer

ORBIFLY MET'MAP TEAM :

Programmation & Développement : Alexandra Zaïnal
Conception & Développement : Baudouin d'Aumeries
Co-Programmation & Développement : Marc-Olivier Méhu
Soutien technique & logistique : Manuel Goepfert

Contact : metmap@orbifly.com




SOURCES & CREDITS :

   NOAA